createdAt,value
2023-05-12T00:04:10.048Z,13.54
2023-05-12T00:08:11.055Z,13.49
2023-05-12T00:12:02.129Z,13.43
2023-05-12T00:16:05.368Z,13.38
2023-05-12T00:20:07.014Z,13.35
2023-05-12T00:24:16.420Z,13.31
2023-05-12T00:28:25.825Z,13.27
2023-05-12T00:32:33.876Z,13.26
2023-05-12T00:36:43.361Z,13.25
2023-05-12T00:40:42.655Z,13.22
2023-05-12T00:44:44.525Z,13.16
2023-05-12T00:48:54.053Z,13.10
2023-05-12T00:53:03.492Z,13.05
2023-05-12T00:56:37.972Z,13.04
2023-05-12T01:00:29.141Z,13.05
2023-05-12T01:04:06.171Z,13.04
2023-05-12T01:08:07.358Z,13.01
2023-05-12T01:12:09.386Z,13.00
2023-05-12T01:16:18.808Z,13.00
2023-05-12T01:20:20.199Z,12.99
2023-05-12T01:24:29.778Z,12.98
2023-05-12T01:28:22.271Z,12.96
2023-05-12T01:31:53.727Z,12.93
2023-05-12T01:36:01.878Z,12.88
2023-05-12T01:39:54.727Z,12.81
2023-05-12T01:44:00.072Z,12.74
2023-05-12T01:47:34.384Z,12.67
2023-05-12T01:51:43.032Z,12.59
2023-05-12T01:55:44.991Z,12.51
2023-05-12T01:59:54.452Z,12.41
2023-05-12T02:03:53.002Z,12.33
2023-05-12T02:07:55.924Z,12.30
2023-05-12T02:12:08.255Z,12.26
2023-05-12T02:16:17.854Z,12.21
2023-05-12T02:20:18.934Z,12.17
2023-05-12T02:24:05.681Z,12.14
2023-05-12T02:28:15.344Z,12.09
2023-05-12T02:32:24.960Z,12.08
2023-05-12T02:36:34.446Z,12.07
2023-05-12T02:40:26.625Z,12.07
2023-05-12T02:44:29.765Z,12.09
2023-05-12T02:47:56.732Z,12.10
2023-05-12T02:51:46.069Z,12.06
2023-05-12T02:55:48.225Z,11.99
2023-05-12T02:59:57.603Z,11.94
2023-05-12T03:04:05.827Z,11.92
2023-05-12T03:08:15.455Z,11.88
2023-05-12T03:12:13.991Z,11.82
2023-05-12T03:16:23.474Z,11.76
2023-05-12T03:20:21.671Z,11.72
2023-05-12T03:23:37.439Z,11.70
2023-05-12T03:27:29.472Z,11.70
2023-05-12T03:31:18.181Z,11.66
2023-05-12T03:35:17.539Z,11.62
2023-05-12T03:39:24.710Z,11.60
2023-05-12T03:43:23.573Z,11.62
2023-05-12T03:47:33.122Z,11.65
2023-05-12T03:51:42.620Z,11.69
2023-05-12T03:55:52.217Z,11.77
2023-05-12T03:59:17.535Z,11.84
2023-05-12T04:02:28.292Z,11.89
2023-05-12T04:06:15.892Z,11.93
2023-05-12T04:10:05.180Z,11.98
2023-05-12T04:13:33.211Z,12.04
2023-05-12T04:16:22.739Z,12.07
2023-05-12T04:19:21.058Z,12.11
2023-05-12T04:23:22.006Z,12.17
2023-05-12T04:27:24.024Z,12.21
2023-05-12T04:30:50.961Z,12.25
2023-05-12T04:34:49.353Z,12.29
2023-05-12T04:38:04.562Z,12.33
2023-05-12T04:41:44.150Z,12.38
2023-05-12T04:45:26.185Z,12.41
2023-05-12T04:48:48.242Z,12.45
2023-05-12T04:51:44.477Z,12.48
2023-05-12T04:54:55.907Z,12.52
2023-05-12T04:58:33.776Z,12.56
2023-05-12T05:01:54.486Z,12.62
2023-05-12T05:05:23.629Z,12.67
2023-05-12T05:08:53.278Z,12.72
2023-05-12T05:12:13.331Z,12.78
2023-05-12T05:15:23.691Z,12.86
2023-05-12T05:18:47.873Z,12.92
2023-05-12T05:22:05.990Z,12.98
2023-05-12T05:25:56.980Z,13.06
2023-05-12T05:29:07.472Z,13.10
2023-05-12T05:32:47.585Z,13.16
2023-05-12T05:36:38.247Z,13.23
2023-05-12T05:39:50.169Z,13.30
2023-05-12T05:43:05.886Z,13.35
2023-05-12T05:46:45.355Z,13.41
2023-05-12T05:49:29.563Z,13.46
2023-05-12T05:52:34.857Z,13.49
2023-05-12T05:55:38.565Z,13.51
2023-05-12T05:58:42.620Z,13.53
2023-05-12T06:02:00.726Z,13.54
2023-05-12T06:04:35.841Z,13.57
2023-05-12T06:08:24.505Z,13.60
2023-05-12T06:12:30.057Z,13.65
2023-05-12T06:16:12.028Z,13.69
2023-05-12T06:20:15.315Z,13.74
2023-05-12T06:23:09.402Z,13.79
2023-05-12T06:26:03.462Z,13.84
2023-05-12T06:29:29.930Z,13.90
2023-05-12T06:32:48.750Z,13.94
2023-05-12T06:35:49.153Z,13.99
2023-05-12T06:38:41.670Z,14.02
2023-05-12T06:42:09.144Z,14.07
2023-05-12T06:45:40.310Z,14.12
2023-05-12T06:49:04.148Z,14.16
2023-05-12T06:52:40.525Z,14.21
2023-05-12T06:56:29.768Z,14.26
2023-05-12T07:00:20.606Z,14.31
2023-05-12T07:03:57.392Z,14.36
2023-05-12T07:07:23.747Z,14.42
2023-05-12T07:11:01.874Z,14.48
2023-05-12T07:14:01.788Z,14.54
2023-05-12T07:17:20.765Z,14.58
2023-05-12T07:20:31.774Z,14.64
2023-05-12T07:24:12.534Z,14.69
2023-05-12T07:27:25.123Z,14.76
2023-05-12T07:30:39.603Z,14.82
2023-05-12T07:33:58.845Z,14.87
2023-05-12T07:37:51.099Z,14.93
2023-05-12T07:41:21.612Z,14.99
2023-05-12T07:43:50.596Z,15.04
2023-05-12T07:46:42.499Z,15.08
2023-05-12T07:49:47.388Z,15.13
2023-05-12T07:52:28.952Z,15.18
2023-05-12T07:55:37.999Z,15.23
2023-05-12T07:58:12.459Z,15.27
2023-05-12T08:01:24.622Z,15.32
2023-05-12T08:04:15.240Z,15.38
2023-05-12T08:07:22.895Z,15.42
2023-05-12T08:10:34.420Z,15.48
2023-05-12T08:14:07.047Z,15.55
2023-05-12T08:17:21.756Z,15.60
2023-05-12T08:20:36.698Z,15.66
2023-05-12T08:24:28.196Z,15.73
2023-05-12T08:27:52.722Z,15.80
2023-05-12T08:30:56.849Z,15.85
2023-05-12T08:34:22.338Z,15.91
2023-05-12T08:37:34.351Z,15.96
2023-05-12T08:40:58.857Z,16.01
2023-05-12T08:44:19.666Z,16.03
2023-05-12T08:47:04.315Z,16.05
2023-05-12T08:50:49.216Z,16.06
2023-05-12T08:53:45.394Z,16.09
2023-05-12T08:59:14.846Z,16.13
2023-05-12T09:02:18.946Z,16.16
2023-05-12T09:05:14.420Z,16.19
2023-05-12T09:07:46.774Z,16.19
2023-05-12T09:13:26.329Z,16.19
2023-05-12T09:16:04.772Z,16.18
2023-05-12T09:18:54.763Z,16.20
2023-05-12T09:21:24.048Z,16.21
2023-05-12T09:23:57.060Z,16.22
2023-05-12T09:26:34.492Z,16.24
2023-05-12T09:29:08.608Z,16.25
2023-05-12T09:32:09.263Z,16.27
2023-05-12T09:34:51.783Z,16.29
2023-05-12T09:37:38.390Z,16.31
2023-05-12T09:40:58.061Z,16.32
2023-05-12T09:43:50.512Z,16.38
2023-05-12T09:46:40.963Z,16.42
2023-05-12T09:50:12.779Z,16.46
2023-05-12T09:53:12.809Z,16.52
2023-05-12T09:56:13.825Z,16.55
2023-05-12T09:59:26.749Z,16.57
2023-05-12T10:02:42.378Z,16.63
2023-05-12T10:06:07.902Z,16.68
2023-05-12T10:09:49.043Z,16.71
2023-05-12T10:13:14.724Z,16.79
2023-05-12T10:16:28.601Z,16.86
2023-05-12T10:19:52.945Z,16.91
2023-05-12T10:22:32.043Z,16.98
2023-05-12T10:25:39.721Z,17.03
2023-05-12T10:29:15.520Z,17.12
2023-05-12T10:31:52.720Z,17.15
2023-05-12T10:34:52.615Z,17.17
2023-05-12T10:37:33.439Z,17.20
2023-05-12T10:40:43.228Z,17.23
2023-05-12T10:43:36.695Z,17.29
2023-05-12T10:46:50.797Z,17.32
2023-05-12T10:49:55.318Z,17.35
2023-05-12T10:52:26.917Z,17.40
2023-05-12T10:55:14.678Z,17.45
2023-05-12T10:57:54.441Z,17.49
2023-05-12T11:01:08.190Z,17.53
2023-05-12T11:03:54.473Z,17.57
2023-05-12T11:06:44.981Z,17.62
2023-05-12T11:10:13.299Z,17.68
2023-05-12T11:12:56.599Z,17.76
2023-05-12T11:15:28.803Z,17.84
2023-05-12T11:18:13.080Z,17.92
2023-05-12T11:21:17.865Z,17.98
2023-05-12T11:24:17.883Z,18.03
2023-05-12T11:27:39.312Z,18.09
2023-05-12T11:30:37.111Z,18.14
2023-05-12T11:37:26.603Z,18.26
2023-05-12T11:40:49.949Z,18.31
2023-05-12T11:44:53.083Z,18.38
2023-05-12T11:47:54.642Z,18.43
2023-05-12T11:50:44.735Z,18.44
2023-05-12T11:53:50.683Z,18.45
2023-05-12T11:56:57.052Z,18.45
2023-05-12T11:59:40.458Z,18.46
2023-05-12T12:02:43.333Z,18.45
2023-05-12T12:05:24.764Z,18.47
2023-05-12T12:08:13.253Z,18.50
2023-05-12T12:10:47.892Z,18.55
2023-05-12T12:13:27.175Z,18.61
2023-05-12T12:16:00.921Z,18.65
2023-05-12T12:18:51.846Z,18.69
2023-05-12T12:21:28.129Z,18.72
2023-05-12T12:23:59.845Z,18.77
2023-05-12T12:26:28.333Z,18.82
2023-05-12T12:28:59.840Z,18.85
2023-05-12T12:31:36.667Z,18.88
2023-05-12T12:34:05.158Z,18.91
2023-05-12T12:36:36.921Z,18.94
2023-05-12T12:39:05.350Z,18.99
2023-05-12T12:42:05.318Z,19.02
2023-05-12T12:44:50.310Z,19.07
2023-05-12T12:47:24.904Z,19.10
2023-05-12T12:49:53.418Z,19.13
2023-05-12T12:52:31.024Z,19.16
2023-05-12T12:55:02.661Z,19.20
2023-05-12T12:57:31.187Z,19.24
2023-05-12T13:00:02.984Z,19.30
2023-05-12T13:02:31.324Z,19.36
2023-05-12T13:05:07.240Z,19.43
2023-05-12T13:07:35.812Z,19.48
2023-05-12T13:10:05.089Z,19.53
2023-05-12T13:12:39.119Z,19.56
2023-05-12T13:15:32.399Z,19.60
2023-05-12T13:18:03.907Z,19.66
2023-05-12T13:20:36.454Z,19.73
2023-05-12T13:23:11.028Z,19.76
2023-05-12T13:25:44.935Z,19.78
2023-05-12T13:28:23.590Z,19.78
2023-05-12T13:31:15.285Z,19.78
2023-05-12T13:33:46.356Z,19.77
2023-05-12T13:36:17.669Z,19.76
2023-05-12T13:38:56.477Z,19.77
2023-05-12T13:41:25.017Z,19.79
2023-05-12T13:44:11.594Z,19.78
2023-05-12T13:47:00.203Z,19.77
2023-05-12T13:49:36.869Z,19.76
2023-05-12T13:52:57.751Z,19.77
2023-05-12T13:55:40.604Z,19.79
2023-05-12T13:58:46.516Z,19.84
2023-05-12T14:02:11.969Z,19.90
2023-05-12T14:05:35.944Z,19.95
2023-05-12T14:09:11.890Z,20.05
2023-05-12T14:11:54.590Z,20.13
2023-05-12T14:14:23.221Z,20.22
2023-05-12T14:16:55.094Z,20.32
2023-05-12T14:19:23.658Z,20.43
2023-05-12T14:21:52.134Z,20.58
2023-05-12T14:24:20.531Z,20.71
2023-05-12T14:26:51.636Z,20.83
2023-05-12T14:29:19.912Z,20.93
2023-05-12T14:31:48.307Z,21.04
2023-05-12T14:34:19.311Z,21.16
2023-05-12T14:36:50.376Z,21.25
2023-05-12T14:39:21.844Z,21.35
2023-05-12T14:41:53.618Z,21.46
2023-05-12T14:44:21.900Z,21.54
2023-05-12T14:46:50.226Z,21.65
2023-05-12T14:49:59.211Z,21.73
2023-05-12T14:52:57.562Z,21.88
2023-05-12T14:55:41.442Z,21.98
2023-05-12T14:58:36.490Z,22.06
2023-05-12T15:01:54.331Z,22.20
2023-05-12T15:05:00.188Z,22.31
2023-05-12T15:08:26.045Z,22.46
2023-05-12T15:12:04.124Z,22.61
2023-05-12T15:15:40.651Z,22.67
2023-05-12T15:18:23.764Z,22.74
2023-05-12T15:21:42.973Z,22.78
2023-05-12T15:24:20.355Z,22.83
2023-05-12T15:26:49.040Z,22.92
2023-05-12T15:29:37.399Z,23.05
2023-05-12T15:35:24.263Z,23.32
2023-05-12T15:38:29.285Z,23.40
2023-05-12T15:42:02.165Z,23.49
2023-05-12T15:45:35.658Z,23.54
2023-05-12T15:48:24.419Z,23.57
2023-05-12T15:51:47.212Z,23.63
2023-05-12T15:54:49.842Z,23.67
2023-05-12T15:57:33.075Z,23.67
2023-05-12T16:00:27.792Z,23.67
2023-05-12T16:03:17.394Z,23.67
2023-05-12T16:06:02.076Z,23.71
2023-05-12T16:09:00.784Z,23.74
2023-05-12T16:12:17.813Z,23.76
2023-05-12T16:15:40.371Z,23.69
2023-05-12T16:18:31.935Z,23.63
2023-05-12T16:22:03.359Z,23.62
2023-05-12T16:24:56.592Z,23.52
2023-05-12T16:28:28.411Z,23.43
2023-05-12T16:32:03.868Z,23.30
2023-05-12T16:35:04.623Z,23.18
2023-05-12T16:38:32.360Z,23.12
2023-05-12T16:41:41.580Z,23.10
2023-05-12T16:44:50.765Z,23.14
2023-05-12T16:47:53.328Z,23.12
2023-05-12T16:51:16.780Z,23.10
2023-05-12T16:54:55.128Z,23.09
2023-05-12T16:58:42.679Z,23.09
2023-05-12T17:01:34.598Z,23.03
2023-05-12T17:04:03.181Z,22.96
2023-05-12T17:06:32.028Z,22.92
2023-05-12T17:09:12.713Z,22.91
2023-05-12T17:11:41.116Z,22.92
2023-05-12T17:14:12.639Z,22.92
2023-05-12T17:16:44.885Z,22.87
2023-05-12T17:19:14.400Z,22.82
2023-05-12T17:21:52.145Z,22.69
2023-05-12T17:24:24.515Z,22.57
2023-05-12T17:27:06.917Z,22.46
2023-05-12T17:29:35.724Z,22.40
2023-05-12T17:32:05.741Z,22.36
2023-05-12T17:35:08.517Z,22.35
2023-05-12T17:37:40.330Z,22.28
2023-05-12T17:40:40.031Z,22.22
2023-05-12T17:43:18.622Z,22.10
2023-05-12T17:46:00.539Z,21.92
2023-05-12T17:48:38.450Z,21.79
2023-05-12T17:51:39.237Z,21.65
2023-05-12T17:54:17.817Z,21.51
2023-05-12T17:56:48.789Z,21.40
2023-05-12T17:59:20.646Z,21.29
2023-05-12T18:01:56.563Z,21.19
2023-05-12T18:05:07.659Z,21.10
2023-05-12T18:07:56.080Z,20.97
2023-05-12T18:10:51.248Z,20.87
2023-05-12T18:13:27.646Z,20.76
2023-05-12T18:16:36.495Z,20.58
2023-05-12T18:19:27.652Z,20.31
2023-05-12T18:21:59.242Z,20.12
2023-05-12T18:24:58.008Z,19.92
2023-05-12T18:27:47.002Z,19.71
2023-05-12T18:30:18.704Z,19.53
2023-05-12T18:32:54.789Z,19.36
2023-05-12T18:35:27.156Z,19.16
2023-05-12T18:37:58.835Z,18.94
2023-05-12T18:40:35.281Z,18.78
2023-05-12T18:43:03.868Z,18.68
2023-05-12T18:46:03.973Z,18.57
2023-05-12T18:48:54.141Z,18.41
2023-05-12T18:52:00.707Z,18.27
2023-05-12T18:54:44.224Z,18.16
2023-05-12T18:57:35.389Z,18.02
2023-05-12T19:00:12.899Z,17.94
2023-05-12T19:02:42.453Z,17.86
2023-05-12T19:05:13.932Z,17.76
2023-05-12T19:07:52.128Z,17.63
2023-05-12T19:10:29.166Z,17.52
2023-05-12T19:13:00.426Z,17.44
2023-05-12T19:16:23.804Z,17.36
2023-05-12T19:18:57.755Z,17.26
2023-05-12T19:21:37.242Z,17.18
2023-05-12T19:24:09.193Z,17.08
2023-05-12T19:26:37.627Z,17.01
2023-05-12T19:29:12.165Z,16.93
2023-05-12T19:31:41.109Z,16.86
2023-05-12T19:34:09.648Z,16.78
2023-05-12T19:36:41.173Z,16.70
2023-05-12T19:39:10.210Z,16.64
2023-05-12T19:41:40.078Z,16.58
2023-05-12T19:44:12.069Z,16.53
2023-05-12T19:46:40.401Z,16.45
2023-05-12T19:49:18.657Z,16.40
2023-05-12T19:52:30.591Z,16.36
2023-05-12T19:55:12.042Z,16.33
2023-05-12T19:57:48.187Z,16.29
2023-05-12T20:00:39.912Z,16.26
2023-05-12T20:03:08.949Z,16.25
2023-05-12T20:05:49.032Z,16.23
2023-05-12T20:08:17.959Z,16.20
2023-05-12T20:11:24.802Z,16.15
2023-05-12T20:14:22.866Z,16.09
2023-05-12T20:17:31.880Z,16.05
2023-05-12T20:20:50.129Z,16.03
2023-05-12T20:23:18.777Z,15.99
2023-05-12T20:25:50.291Z,15.95
2023-05-12T20:28:24.136Z,15.91
2023-05-12T20:31:33.386Z,15.87
2023-05-12T20:34:24.190Z,15.83
2023-05-12T20:36:55.384Z,15.80
2023-05-12T20:39:30.147Z,15.75
2023-05-12T20:42:00.126Z,15.70
2023-05-12T20:44:38.738Z,15.66
2023-05-12T20:47:13.096Z,15.60
2023-05-12T20:49:47.921Z,15.56
2023-05-12T20:52:32.141Z,15.52
2023-05-12T20:55:04.044Z,15.47
2023-05-12T20:57:32.531Z,15.42
2023-05-12T21:00:04.682Z,15.37
2023-05-12T21:02:56.860Z,15.32
2023-05-12T21:05:41.970Z,15.26
2023-05-12T21:08:14.242Z,15.22
2023-05-12T21:10:52.095Z,15.19
2023-05-12T21:13:31.009Z,15.13
2023-05-12T21:16:22.647Z,15.07
2023-05-12T21:18:51.629Z,15.02
2023-05-12T21:21:31.739Z,14.98
2023-05-12T21:24:03.043Z,14.93
2023-05-12T21:26:39.731Z,14.89
2023-05-12T21:29:10.631Z,14.86
2023-05-12T21:31:41.912Z,14.80
2023-05-12T21:34:24.737Z,14.75
2023-05-12T21:37:45.255Z,14.69
2023-05-12T21:41:05.343Z,14.64
2023-05-12T21:44:17.147Z,14.61
2023-05-12T21:47:04.221Z,14.58
2023-05-12T21:49:57.705Z,14.57
2023-05-12T21:52:36.598Z,14.52
2023-05-12T21:55:34.070Z,14.47
2023-05-12T21:58:05.704Z,14.43
2023-05-12T22:01:19.676Z,14.41
2023-05-12T22:04:04.366Z,14.40
2023-05-12T22:06:48.054Z,14.36
2023-05-12T22:09:20.495Z,14.32
2023-05-12T22:12:25.852Z,14.29
2023-05-12T22:15:07.011Z,14.26
2023-05-12T22:17:49.645Z,14.21
2023-05-12T22:20:25.889Z,14.17
2023-05-12T22:23:30.529Z,14.15
2023-05-12T22:26:21.902Z,14.15
2023-05-12T22:28:53.774Z,14.13
2023-05-12T22:31:42.995Z,14.11
2023-05-12T22:34:27.277Z,14.10
2023-05-12T22:37:09.389Z,14.08
2023-05-12T22:40:10.681Z,14.07
2023-05-12T22:43:01.981Z,14.03
2023-05-12T22:45:57.513Z,13.99
2023-05-12T22:48:29.474Z,13.96
2023-05-12T22:51:04.671Z,13.93
2023-05-12T22:53:49.572Z,13.91
2023-05-12T22:56:29.487Z,13.88
2023-05-12T22:59:23.234Z,13.86
2023-05-12T23:02:18.233Z,13.84
2023-05-12T23:04:49.546Z,13.82
2023-05-12T23:07:22.928Z,13.80
2023-05-12T23:10:15.641Z,13.79
2023-05-12T23:12:53.369Z,13.77
2023-05-12T23:15:43.264Z,13.74
2023-05-12T23:18:37.588Z,13.73
2023-05-12T23:21:12.402Z,13.70
2023-05-12T23:24:07.798Z,13.67
2023-05-12T23:26:53.275Z,13.65
2023-05-12T23:29:42.006Z,13.66
2023-05-12T23:32:42.598Z,13.65
2023-05-12T23:35:16.080Z,13.63
2023-05-12T23:37:58.922Z,13.61
2023-05-12T23:40:44.578Z,13.60
2023-05-12T23:43:46.182Z,13.60
2023-05-12T23:47:13.480Z,13.58
2023-05-12T23:50:51.566Z,13.58
2023-05-12T23:53:34.166Z,13.56
2023-05-12T23:56:10.051Z,13.54
2023-05-12T23:58:59.441Z,13.52
